sensor_id;sensor_type;location;lat;lon;timestamp;P1;durP1;ratioP1;P2;durP2;ratioP2
72720;SDS011;60835;50.974;10.322;2022-10-31T00:01:21;17.05;;;5.70;;
72720;SDS011;60835;50.974;10.322;2022-10-31T00:03:50;13.50;;;6.15;;
72720;SDS011;60835;50.974;10.322;2022-10-31T00:06:16;12.65;;;5.65;;
72720;SDS011;60835;50.974;10.322;2022-10-31T00:08:46;14.80;;;5.20;;
72720;SDS011;60835;50.974;10.322;2022-10-31T00:11:13;18.08;;;6.20;;
72720;SDS011;60835;50.974;10.322;2022-10-31T00:13:40;16.70;;;5.55;;
72720;SDS011;60835;50.974;10.322;2022-10-31T00:16:12;10.32;;;5.00;;
72720;SDS011;60835;50.974;10.322;2022-10-31T00:21:06;19.08;;;6.07;;
72720;SDS011;60835;50.974;10.322;2022-10-31T00:23:33;21.60;;;6.13;;
72720;SDS011;60835;50.974;10.322;2022-10-31T00:26:00;21.05;;;6.47;;
72720;SDS011;60835;50.974;10.322;2022-10-31T00:28:28;18.55;;;6.40;;
72720;SDS011;60835;50.974;10.322;2022-10-31T00:31:00;16.77;;;5.63;;
72720;SDS011;60835;50.974;10.322;2022-10-31T00:33:27;17.42;;;6.03;;
72720;SDS011;60835;50.974;10.322;2022-10-31T00:35:54;17.00;;;5.72;;
72720;SDS011;60835;50.974;10.322;2022-10-31T00:38:21;17.25;;;5.50;;
72720;SDS011;60835;50.974;10.322;2022-10-31T00:40:48;14.93;;;5.72;;
72720;SDS011;60835;50.974;10.322;2022-10-31T00:43:14;20.65;;;5.80;;
72720;SDS011;60835;50.974;10.322;2022-10-31T00:45:41;13.07;;;5.70;;
72720;SDS011;60835;50.974;10.322;2022-10-31T00:48:08;20.50;;;6.63;;
72720;SDS011;60835;50.974;10.322;2022-10-31T00:50:35;15.98;;;5.70;;
72720;SDS011;60835;50.974;10.322;2022-10-31T00:53:02;23.00;;;5.28;;
72720;SDS011;60835;50.974;10.322;2022-10-31T00:55:28;17.67;;;5.63;;
72720;SDS011;60835;50.974;10.322;2022-10-31T00:57:55;19.42;;;5.32;;
72720;SDS011;60835;50.974;10.322;2022-10-31T01:00:22;13.02;;;5.30;;
72720;SDS011;60835;50.974;10.322;2022-10-31T01:02:49;12.18;;;5.38;;
72720;SDS011;60835;50.974;10.322;2022-10-31T01:05:15;19.75;;;6.30;;
72720;SDS011;60835;50.974;10.322;2022-10-31T01:07:42;24.05;;;6.05;;
72720;SDS011;60835;50.974;10.322;2022-10-31T01:10:09;14.65;;;5.80;;
72720;SDS011;60835;50.974;10.322;2022-10-31T01:12:37;21.02;;;6.22;;
72720;SDS011;60835;50.974;10.322;2022-10-31T01:15:05;16.83;;;5.97;;
72720;SDS011;60835;50.974;10.322;2022-10-31T01:17:32;16.45;;;6.05;;
72720;SDS011;60835;50.974;10.322;2022-10-31T01:19:58;15.18;;;5.45;;
72720;SDS011;60835;50.974;10.322;2022-10-31T01:22:25;15.50;;;5.68;;
72720;SDS011;60835;50.974;10.322;2022-10-31T01:24:51;16.25;;;6.00;;
72720;SDS011;60835;50.974;10.322;2022-10-31T01:27:18;21.50;;;5.68;;
72720;SDS011;60835;50.974;10.322;2022-10-31T01:29:44;13.65;;;5.55;;
72720;SDS011;60835;50.974;10.322;2022-10-31T01:32:11;20.45;;;5.90;;
72720;SDS011;60835;50.974;10.322;2022-10-31T01:34:38;21.48;;;5.43;;
72720;SDS011;60835;50.974;10.322;2022-10-31T01:37:04;21.70;;;6.18;;
72720;SDS011;60835;50.974;10.322;2022-10-31T01:39:30;17.02;;;5.43;;
72720;SDS011;60835;50.974;10.322;2022-10-31T01:41:57;16.92;;;4.90;;
72720;SDS011;60835;50.974;10.322;2022-10-31T01:49:26;17.65;;;5.00;;
72720;SDS011;60835;50.974;10.322;2022-10-31T01:52:00;15.80;;;5.15;;
72720;SDS011;60835;50.974;10.322;2022-10-31T01:54:41;13.63;;;4.85;;
72720;SDS011;60835;50.974;10.322;2022-10-31T01:57:12;13.43;;;5.63;;
72720;SDS011;60835;50.974;10.322;2022-10-31T01:59:42;9.82;;;5.00;;
72720;SDS011;60835;50.974;10.322;2022-10-31T02:02:13;14.60;;;5.20;;
72720;SDS011;60835;50.974;10.322;2022-10-31T02:04:43;16.10;;;5.28;;
72720;SDS011;60835;50.974;10.322;2022-10-31T02:10:26;16.42;;;4.93;;
72720;SDS011;60835;50.974;10.322;2022-10-31T02:12:54;22.65;;;5.80;;
72720;SDS011;60835;50.974;10.322;2022-10-31T02:15:24;16.95;;;5.53;;
72720;SDS011;60835;50.974;10.322;2022-10-31T02:17:51;16.52;;;5.32;;
72720;SDS011;60835;50.974;10.322;2022-10-31T02:20:21;11.05;;;5.03;;
72720;SDS011;60835;50.974;10.322;2022-10-31T02:26:16;13.35;;;4.85;;
72720;SDS011;60835;50.974;10.322;2022-10-31T02:28:54;24.10;;;5.45;;
72720;SDS011;60835;50.974;10.322;2022-10-31T02:31:31;17.70;;;6.45;;
72720;SDS011;60835;50.974;10.322;2022-10-31T02:39:34;15.85;;;5.53;;
72720;SDS011;60835;50.974;10.322;2022-10-31T02:42:07;17.48;;;5.88;;
72720;SDS011;60835;50.974;10.322;2022-10-31T02:44:45;11.77;;;5.25;;
72720;SDS011;60835;50.974;10.322;2022-10-31T02:47:24;16.10;;;5.10;;
72720;SDS011;60835;50.974;10.322;2022-10-31T02:49:56;12.38;;;5.05;;
72720;SDS011;60835;50.974;10.322;2022-10-31T02:52:27;13.35;;;4.68;;
72720;SDS011;60835;50.974;10.322;2022-10-31T02:54:55;11.15;;;5.07;;
72720;SDS011;60835;50.974;10.322;2022-10-31T02:57:29;13.73;;;5.20;;
72720;SDS011;60835;50.974;10.322;2022-10-31T03:00:00;15.43;;;5.10;;
72720;SDS011;60835;50.974;10.322;2022-10-31T03:05:11;16.77;;;5.00;;
72720;SDS011;60835;50.974;10.322;2022-10-31T03:10:41;16.17;;;5.07;;
72720;SDS011;60835;50.974;10.322;2022-10-31T03:15:58;12.52;;;4.38;;
72720;SDS011;60835;50.974;10.322;2022-10-31T03:18:34;12.73;;;5.18;;
72720;SDS011;60835;50.974;10.322;2022-10-31T03:21:07;18.42;;;5.35;;
72720;SDS011;60835;50.974;10.322;2022-10-31T03:23:40;16.83;;;5.47;;
72720;SDS011;60835;50.974;10.322;2022-10-31T03:26:09;13.90;;;4.95;;
72720;SDS011;60835;50.974;10.322;2022-10-31T03:28:57;12.82;;;5.07;;
72720;SDS011;60835;50.974;10.322;2022-10-31T03:31:44;14.32;;;5.18;;
72720;SDS011;60835;50.974;10.322;2022-10-31T03:34:22;18.80;;;5.70;;
72720;SDS011;60835;50.974;10.322;2022-10-31T03:36:49;15.32;;;5.18;;
72720;SDS011;60835;50.974;10.322;2022-10-31T03:39:19;11.40;;;5.10;;
72720;SDS011;60835;50.974;10.322;2022-10-31T03:41:49;17.15;;;5.10;;
72720;SDS011;60835;50.974;10.322;2022-10-31T03:44:21;16.45;;;5.50;;
72720;SDS011;60835;50.974;10.322;2022-10-31T03:46:48;16.38;;;5.10;;
72720;SDS011;60835;50.974;10.322;2022-10-31T03:49:15;14.10;;;5.15;;
72720;SDS011;60835;50.974;10.322;2022-10-31T03:54:33;16.85;;;5.18;;
72720;SDS011;60835;50.974;10.322;2022-10-31T03:57:08;18.20;;;4.97;;
72720;SDS011;60835;50.974;10.322;2022-10-31T04:00:04;18.45;;;5.03;;
72720;SDS011;60835;50.974;10.322;2022-10-31T04:02:33;16.38;;;4.07;;
72720;SDS011;60835;50.974;10.322;2022-10-31T04:05:04;18.10;;;5.13;;
72720;SDS011;60835;50.974;10.322;2022-10-31T04:07:33;17.55;;;6.00;;
72720;SDS011;60835;50.974;10.322;2022-10-31T04:10:07;13.23;;;5.13;;
72720;SDS011;60835;50.974;10.322;2022-10-31T04:12:36;12.65;;;5.13;;
72720;SDS011;60835;50.974;10.322;2022-10-31T04:15:05;21.42;;;5.78;;
72720;SDS011;60835;50.974;10.322;2022-10-31T04:17:34;13.18;;;6.18;;
72720;SDS011;60835;50.974;10.322;2022-10-31T04:20:04;21.33;;;5.70;;
72720;SDS011;60835;50.974;10.322;2022-10-31T04:22:32;16.02;;;5.90;;
72720;SDS011;60835;50.974;10.322;2022-10-31T04:24:58;14.20;;;5.63;;
72720;SDS011;60835;50.974;10.322;2022-10-31T04:27:24;17.50;;;4.65;;
72720;SDS011;60835;50.974;10.322;2022-10-31T04:29:51;19.70;;;6.28;;
72720;SDS011;60835;50.974;10.322;2022-10-31T04:32:17;15.07;;;4.68;;
72720;SDS011;60835;50.974;10.322;2022-10-31T04:34:44;19.92;;;6.80;;
72720;SDS011;60835;50.974;10.322;2022-10-31T04:37:10;16.85;;;5.07;;
72720;SDS011;60835;50.974;10.322;2022-10-31T04:39:36;17.80;;;4.82;;
72720;SDS011;60835;50.974;10.322;2022-10-31T04:42:03;15.85;;;4.78;;
72720;SDS011;60835;50.974;10.322;2022-10-31T04:44:29;45.72;;;5.82;;
72720;SDS011;60835;50.974;10.322;2022-10-31T04:46:56;17.27;;;4.72;;
72720;SDS011;60835;50.974;10.322;2022-10-31T04:49:22;17.65;;;4.90;;
72720;SDS011;60835;50.974;10.322;2022-10-31T04:51:49;13.93;;;5.00;;
72720;SDS011;60835;50.974;10.322;2022-10-31T04:54:15;16.83;;;5.43;;
72720;SDS011;60835;50.974;10.322;2022-10-31T04:56:41;17.17;;;5.70;;
72720;SDS011;60835;50.974;10.322;2022-10-31T04:59:08;14.40;;;5.85;;
72720;SDS011;60835;50.974;10.322;2022-10-31T05:01:35;14.20;;;5.43;;
72720;SDS011;60835;50.974;10.322;2022-10-31T05:04:02;13.48;;;5.72;;
72720;SDS011;60835;50.974;10.322;2022-10-31T05:06:28;14.45;;;5.93;;
72720;SDS011;60835;50.974;10.322;2022-10-31T05:08:55;18.60;;;6.55;;
72720;SDS011;60835;50.974;10.322;2022-10-31T05:11:21;33.55;;;6.82;;
72720;SDS011;60835;50.974;10.322;2022-10-31T05:13:48;20.10;;;5.38;;
72720;SDS011;60835;50.974;10.322;2022-10-31T05:16:14;27.75;;;7.07;;
72720;SDS011;60835;50.974;10.322;2022-10-31T05:18:40;11.98;;;6.18;;
72720;SDS011;60835;50.974;10.322;2022-10-31T05:21:07;19.25;;;6.20;;
72720;SDS011;60835;50.974;10.322;2022-10-31T05:23:33;14.85;;;5.13;;
72720;SDS011;60835;50.974;10.322;2022-10-31T05:26:00;15.13;;;5.75;;
72720;SDS011;60835;50.974;10.322;2022-10-31T05:28:26;17.65;;;5.20;;
72720;SDS011;60835;50.974;10.322;2022-10-31T05:30:53;13.60;;;5.20;;
72720;SDS011;60835;50.974;10.322;2022-10-31T05:33:19;9.55;;;4.72;;
72720;SDS011;60835;50.974;10.322;2022-10-31T05:35:45;17.45;;;5.65;;
72720;SDS011;60835;50.974;10.322;2022-10-31T05:38:12;17.25;;;5.70;;
72720;SDS011;60835;50.974;10.322;2022-10-31T05:40:38;17.33;;;5.35;;
72720;SDS011;60835;50.974;10.322;2022-10-31T05:43:05;14.63;;;5.75;;
72720;SDS011;60835;50.974;10.322;2022-10-31T05:45:31;12.82;;;6.03;;
72720;SDS011;60835;50.974;10.322;2022-10-31T05:47:58;19.05;;;6.90;;
72720;SDS011;60835;50.974;10.322;2022-10-31T05:50:27;15.38;;;5.60;;
72720;SDS011;60835;50.974;10.322;2022-10-31T05:53:03;14.63;;;5.97;;
72720;SDS011;60835;50.974;10.322;2022-10-31T05:55:31;14.80;;;5.63;;
72720;SDS011;60835;50.974;10.322;2022-10-31T05:57:58;18.10;;;5.93;;
72720;SDS011;60835;50.974;10.322;2022-10-31T06:00:25;15.63;;;6.10;;
72720;SDS011;60835;50.974;10.322;2022-10-31T06:02:59;12.93;;;5.53;;
72720;SDS011;60835;50.974;10.322;2022-10-31T06:05:27;15.27;;;5.55;;
72720;SDS011;60835;50.974;10.322;2022-10-31T06:07:55;12.90;;;5.45;;
72720;SDS011;60835;50.974;10.322;2022-10-31T06:10:22;14.82;;;5.32;;
72720;SDS011;60835;50.974;10.322;2022-10-31T06:12:49;9.52;;;5.47;;
72720;SDS011;60835;50.974;10.322;2022-10-31T06:15:16;13.48;;;5.47;;
72720;SDS011;60835;50.974;10.322;2022-10-31T06:18:02;12.57;;;5.00;;
72720;SDS011;60835;50.974;10.322;2022-10-31T06:20:32;13.52;;;4.88;;
72720;SDS011;60835;50.974;10.322;2022-10-31T06:22:59;15.43;;;5.22;;
72720;SDS011;60835;50.974;10.322;2022-10-31T06:25:27;11.27;;;4.45;;
72720;SDS011;60835;50.974;10.322;2022-10-31T06:27:54;8.70;;;4.00;;
72720;SDS011;60835;50.974;10.322;2022-10-31T06:30:20;10.63;;;5.25;;
72720;SDS011;60835;50.974;10.322;2022-10-31T06:32:47;9.38;;;4.25;;
72720;SDS011;60835;50.974;10.322;2022-10-31T06:35:13;21.70;;;5.60;;
72720;SDS011;60835;50.974;10.322;2022-10-31T06:37:40;8.70;;;4.88;;
72720;SDS011;60835;50.974;10.322;2022-10-31T06:40:10;16.20;;;5.68;;
72720;SDS011;60835;50.974;10.322;2022-10-31T06:42:37;15.88;;;5.28;;
72720;SDS011;60835;50.974;10.322;2022-10-31T06:45:04;19.30;;;5.43;;
72720;SDS011;60835;50.974;10.322;2022-10-31T06:47:30;16.92;;;5.32;;
72720;SDS011;60835;50.974;10.322;2022-10-31T06:49:58;14.70;;;4.80;;
72720;SDS011;60835;50.974;10.322;2022-10-31T06:52:24;16.73;;;4.68;;
72720;SDS011;60835;50.974;10.322;2022-10-31T06:54:51;10.90;;;4.72;;
72720;SDS011;60835;50.974;10.322;2022-10-31T06:57:18;13.15;;;5.18;;
72720;SDS011;60835;50.974;10.322;2022-10-31T06:59:44;16.05;;;5.75;;
72720;SDS011;60835;50.974;10.322;2022-10-31T07:02:11;16.52;;;6.22;;
72720;SDS011;60835;50.974;10.322;2022-10-31T07:04:38;13.90;;;5.43;;
72720;SDS011;60835;50.974;10.322;2022-10-31T07:07:04;17.17;;;6.20;;
72720;SDS011;60835;50.974;10.322;2022-10-31T07:09:31;15.55;;;5.35;;
72720;SDS011;60835;50.974;10.322;2022-10-31T07:11:57;11.60;;;5.43;;
72720;SDS011;60835;50.974;10.322;2022-10-31T07:14:24;17.30;;;5.50;;
72720;SDS011;60835;50.974;10.322;2022-10-31T07:16:50;15.90;;;6.28;;
72720;SDS011;60835;50.974;10.322;2022-10-31T07:19:17;13.68;;;6.03;;
72720;SDS011;60835;50.974;10.322;2022-10-31T07:21:44;18.90;;;6.10;;
72720;SDS011;60835;50.974;10.322;2022-10-31T07:24:10;13.35;;;5.88;;
72720;SDS011;60835;50.974;10.322;2022-10-31T07:26:37;12.98;;;6.00;;
72720;SDS011;60835;50.974;10.322;2022-10-31T07:29:03;16.38;;;5.40;;
72720;SDS011;60835;50.974;10.322;2022-10-31T07:31:30;16.08;;;6.18;;
72720;SDS011;60835;50.974;10.322;2022-10-31T07:33:56;19.13;;;5.93;;
72720;SDS011;60835;50.974;10.322;2022-10-31T07:36:23;11.07;;;5.82;;
72720;SDS011;60835;50.974;10.322;2022-10-31T07:38:49;17.33;;;5.80;;
72720;SDS011;60835;50.974;10.322;2022-10-31T07:41:15;15.90;;;6.50;;
72720;SDS011;60835;50.974;10.322;2022-10-31T07:43:42;20.08;;;6.43;;
72720;SDS011;60835;50.974;10.322;2022-10-31T07:46:08;19.10;;;6.10;;
72720;SDS011;60835;50.974;10.322;2022-10-31T07:48:35;17.98;;;6.32;;
72720;SDS011;60835;50.974;10.322;2022-10-31T07:51:01;15.05;;;5.97;;
72720;SDS011;60835;50.974;10.322;2022-10-31T07:53:28;13.27;;;6.10;;
72720;SDS011;60835;50.974;10.322;2022-10-31T07:55:54;17.65;;;6.38;;
72720;SDS011;60835;50.974;10.322;2022-10-31T07:58:21;16.17;;;7.15;;
72720;SDS011;60835;50.974;10.322;2022-10-31T08:00:47;15.55;;;5.88;;
72720;SDS011;60835;50.974;10.322;2022-10-31T08:03:15;27.08;;;6.97;;
72720;SDS011;60835;50.974;10.322;2022-10-31T08:05:43;17.20;;;6.60;;
72720;SDS011;60835;50.974;10.322;2022-10-31T08:08:12;17.52;;;8.48;;
72720;SDS011;60835;50.974;10.322;2022-10-31T08:10:40;17.45;;;8.55;;
72720;SDS011;60835;50.974;10.322;2022-10-31T08:13:10;16.70;;;7.82;;
72720;SDS011;60835;50.974;10.322;2022-10-31T08:15:38;15.18;;;6.30;;
72720;SDS011;60835;50.974;10.322;2022-10-31T08:18:11;16.45;;;6.00;;
72720;SDS011;60835;50.974;10.322;2022-10-31T08:20:40;15.20;;;6.18;;
72720;SDS011;60835;50.974;10.322;2022-10-31T08:23:08;13.48;;;6.65;;
72720;SDS011;60835;50.974;10.322;2022-10-31T08:25:36;14.50;;;5.90;;
72720;SDS011;60835;50.974;10.322;2022-10-31T08:28:04;13.93;;;6.10;;
72720;SDS011;60835;50.974;10.322;2022-10-31T08:30:33;15.57;;;6.43;;
72720;SDS011;60835;50.974;10.322;2022-10-31T08:35:37;16.77;;;7.20;;
72720;SDS011;60835;50.974;10.322;2022-10-31T08:38:04;11.80;;;5.35;;
72720;SDS011;60835;50.974;10.322;2022-10-31T08:40:31;12.20;;;5.15;;
72720;SDS011;60835;50.974;10.322;2022-10-31T08:42:59;16.70;;;6.00;;
72720;SDS011;60835;50.974;10.322;2022-10-31T08:45:30;12.63;;;5.32;;
72720;SDS011;60835;50.974;10.322;2022-10-31T08:48:20;19.58;;;5.55;;
72720;SDS011;60835;50.974;10.322;2022-10-31T08:50:45;11.10;;;5.30;;
72720;SDS011;60835;50.974;10.322;2022-10-31T08:53:13;15.45;;;5.93;;
72720;SDS011;60835;50.974;10.322;2022-10-31T08:55:41;15.63;;;5.72;;
72720;SDS011;60835;50.974;10.322;2022-10-31T08:58:10;11.50;;;5.20;;
72720;SDS011;60835;50.974;10.322;2022-10-31T09:00:38;14.65;;;4.95;;
72720;SDS011;60835;50.974;10.322;2022-10-31T09:03:06;8.90;;;4.97;;
72720;SDS011;60835;50.974;10.322;2022-10-31T09:05:38;12.98;;;5.35;;
72720;SDS011;60835;50.974;10.322;2022-10-31T09:08:06;14.05;;;6.18;;
72720;SDS011;60835;50.974;10.322;2022-10-31T09:10:41;13.20;;;5.68;;
72720;SDS011;60835;50.974;10.322;2022-10-31T09:13:12;13.38;;;4.85;;
72720;SDS011;60835;50.974;10.322;2022-10-31T09:15:40;11.15;;;5.10;;
72720;SDS011;60835;50.974;10.322;2022-10-31T09:18:09;16.10;;;5.20;;
72720;SDS011;60835;50.974;10.322;2022-10-31T09:20:38;17.65;;;6.35;;
72720;SDS011;60835;50.974;10.322;2022-10-31T09:23:06;14.10;;;6.97;;
72720;SDS011;60835;50.974;10.322;2022-10-31T09:25:38;13.93;;;5.72;;
72720;SDS011;60835;50.974;10.322;2022-10-31T09:28:05;17.35;;;6.40;;
72720;SDS011;60835;50.974;10.322;2022-10-31T09:30:34;15.68;;;6.97;;
72720;SDS011;60835;50.974;10.322;2022-10-31T09:33:03;17.30;;;7.07;;
72720;SDS011;60835;50.974;10.322;2022-10-31T09:35:31;13.20;;;6.28;;
72720;SDS011;60835;50.974;10.322;2022-10-31T09:37:59;13.93;;;5.95;;
72720;SDS011;60835;50.974;10.322;2022-10-31T09:40:31;13.85;;;6.35;;
72720;SDS011;60835;50.974;10.322;2022-10-31T09:51:04;10.77;;;6.60;;
72720;SDS011;60835;50.974;10.322;2022-10-31T09:53:44;16.10;;;7.25;;
72720;SDS011;60835;50.974;10.322;2022-10-31T09:56:15;15.10;;;6.43;;
72720;SDS011;60835;50.974;10.322;2022-10-31T09:58:55;14.80;;;6.30;;
72720;SDS011;60835;50.974;10.322;2022-10-31T10:01:32;13.80;;;7.65;;
72720;SDS011;60835;50.974;10.322;2022-10-31T10:04:01;18.15;;;7.25;;
72720;SDS011;60835;50.974;10.322;2022-10-31T10:06:42;11.85;;;6.70;;
72720;SDS011;60835;50.974;10.322;2022-10-31T10:09:12;13.68;;;7.18;;
72720;SDS011;60835;50.974;10.322;2022-10-31T10:11:52;13.52;;;7.25;;
72720;SDS011;60835;50.974;10.322;2022-10-31T10:17:28;18.30;;;6.65;;
72720;SDS011;60835;50.974;10.322;2022-10-31T10:23:06;16.63;;;6.60;;
72720;SDS011;60835;50.974;10.322;2022-10-31T10:28:16;15.98;;;7.72;;
72720;SDS011;60835;50.974;10.322;2022-10-31T10:31:03;15.68;;;8.20;;
72720;SDS011;60835;50.974;10.322;2022-10-31T10:36:07;25.95;;;8.23;;
72720;SDS011;60835;50.974;10.322;2022-10-31T10:38:50;14.07;;;7.20;;
72720;SDS011;60835;50.974;10.322;2022-10-31T10:41:26;19.52;;;7.05;;
72720;SDS011;60835;50.974;10.322;2022-10-31T10:43:59;18.42;;;7.10;;
72720;SDS011;60835;50.974;10.322;2022-10-31T10:49:34;16.60;;;6.72;;
72720;SDS011;60835;50.974;10.322;2022-10-31T10:55:32;15.50;;;6.50;;
72720;SDS011;60835;50.974;10.322;2022-10-31T10:58:06;14.02;;;6.38;;
72720;SDS011;60835;50.974;10.322;2022-10-31T11:00:35;20.30;;;7.07;;
72720;SDS011;60835;50.974;10.322;2022-10-31T11:03:06;19.67;;;6.75;;
72720;SDS011;60835;50.974;10.322;2022-10-31T11:11:02;14.52;;;6.03;;
72720;SDS011;60835;50.974;10.322;2022-10-31T11:13:35;18.98;;;6.68;;
72720;SDS011;60835;50.974;10.322;2022-10-31T11:16:04;19.90;;;6.38;;
72720;SDS011;60835;50.974;10.322;2022-10-31T11:18:45;14.98;;;6.55;;
72720;SDS011;60835;50.974;10.322;2022-10-31T11:21:20;14.57;;;6.43;;
72720;SDS011;60835;50.974;10.322;2022-10-31T11:26:37;25.25;;;6.50;;
72720;SDS011;60835;50.974;10.322;2022-10-31T11:29:05;16.85;;;6.93;;
72720;SDS011;60835;50.974;10.322;2022-10-31T11:31:38;16.95;;;6.18;;
72720;SDS011;60835;50.974;10.322;2022-10-31T11:34:07;15.27;;;5.88;;
72720;SDS011;60835;50.974;10.322;2022-10-31T11:36:42;14.73;;;6.15;;
72720;SDS011;60835;50.974;10.322;2022-10-31T11:39:15;17.45;;;6.90;;
72720;SDS011;60835;50.974;10.322;2022-10-31T11:41:45;19.55;;;5.97;;
72720;SDS011;60835;50.974;10.322;2022-10-31T11:44:15;15.13;;;6.00;;
72720;SDS011;60835;50.974;10.322;2022-10-31T11:46:46;16.95;;;5.40;;
72720;SDS011;60835;50.974;10.322;2022-10-31T11:49:16;15.18;;;6.35;;
72720;SDS011;60835;50.974;10.322;2022-10-31T11:51:47;18.77;;;7.07;;
72720;SDS011;60835;50.974;10.322;2022-10-31T11:54:25;18.70;;;7.65;;
72720;SDS011;60835;50.974;10.322;2022-10-31T11:56:55;18.40;;;6.47;;
72720;SDS011;60835;50.974;10.322;2022-10-31T11:59:28;21.58;;;5.30;;
72720;SDS011;60835;50.974;10.322;2022-10-31T12:01:58;12.13;;;5.70;;
72720;SDS011;60835;50.974;10.322;2022-10-31T12:04:35;14.43;;;6.40;;
72720;SDS011;60835;50.974;10.322;2022-10-31T12:07:08;16.38;;;5.88;;
72720;SDS011;60835;50.974;10.322;2022-10-31T12:09:35;15.35;;;6.07;;
72720;SDS011;60835;50.974;10.322;2022-10-31T12:18:01;20.48;;;6.20;;
72720;SDS011;60835;50.974;10.322;2022-10-31T12:26:41;17.38;;;6.57;;
72720;SDS011;60835;50.974;10.322;2022-10-31T12:29:20;12.57;;;5.93;;
72720;SDS011;60835;50.974;10.322;2022-10-31T12:37:54;14.05;;;6.32;;
72720;SDS011;60835;50.974;10.322;2022-10-31T12:57:05;17.60;;;6.38;;
72720;SDS011;60835;50.974;10.322;2022-10-31T12:59:43;18.83;;;6.45;;
72720;SDS011;60835;50.974;10.322;2022-10-31T13:04:55;21.63;;;5.47;;
72720;SDS011;60835;50.974;10.322;2022-10-31T13:07:29;28.13;;;6.68;;
72720;SDS011;60835;50.974;10.322;2022-10-31T13:13:00;12.73;;;5.85;;
72720;SDS011;60835;50.974;10.322;2022-10-31T13:15:35;16.23;;;6.25;;
72720;SDS011;60835;50.974;10.322;2022-10-31T13:18:14;16.40;;;5.93;;
72720;SDS011;60835;50.974;10.322;2022-10-31T13:21:03;15.10;;;6.30;;
72720;SDS011;60835;50.974;10.322;2022-10-31T13:23:38;16.05;;;6.57;;
72720;SDS011;60835;50.974;10.322;2022-10-31T13:26:43;17.10;;;6.35;;
72720;SDS011;60835;50.974;10.322;2022-10-31T13:31:45;14.02;;;6.47;;
72720;SDS011;60835;50.974;10.322;2022-10-31T13:34:34;20.40;;;5.90;;
72720;SDS011;60835;50.974;10.322;2022-10-31T13:37:39;15.10;;;5.63;;
72720;SDS011;60835;50.974;10.322;2022-10-31T13:43:28;16.67;;;5.80;;
72720;SDS011;60835;50.974;10.322;2022-10-31T13:46:24;16.47;;;6.60;;
72720;SDS011;60835;50.974;10.322;2022-10-31T13:49:00;20.00;;;6.20;;
72720;SDS011;60835;50.974;10.322;2022-10-31T13:51:31;17.83;;;5.97;;
72720;SDS011;60835;50.974;10.322;2022-10-31T13:54:05;19.42;;;7.50;;
72720;SDS011;60835;50.974;10.322;2022-10-31T13:56:48;17.83;;;6.65;;
72720;SDS011;60835;50.974;10.322;2022-10-31T13:59:19;12.73;;;6.15;;
72720;SDS011;60835;50.974;10.322;2022-10-31T14:01:55;17.65;;;6.43;;
72720;SDS011;60835;50.974;10.322;2022-10-31T14:04:38;17.73;;;6.47;;
72720;SDS011;60835;50.974;10.322;2022-10-31T14:07:13;16.55;;;6.75;;
72720;SDS011;60835;50.974;10.322;2022-10-31T14:12:33;20.63;;;6.80;;
72720;SDS011;60835;50.974;10.322;2022-10-31T14:15:03;16.10;;;6.32;;
72720;SDS011;60835;50.974;10.322;2022-10-31T14:22:44;20.80;;;6.38;;
72720;SDS011;60835;50.974;10.322;2022-10-31T14:27:53;19.38;;;6.13;;
72720;SDS011;60835;50.974;10.322;2022-10-31T14:30:20;16.00;;;6.53;;
72720;SDS011;60835;50.974;10.322;2022-10-31T14:32:51;17.27;;;6.68;;
72720;SDS011;60835;50.974;10.322;2022-10-31T14:35:21;18.25;;;6.65;;
72720;SDS011;60835;50.974;10.322;2022-10-31T14:43:17;12.90;;;5.75;;
72720;SDS011;60835;50.974;10.322;2022-10-31T14:45:52;14.98;;;6.75;;
72720;SDS011;60835;50.974;10.322;2022-10-31T14:48:45;19.50;;;6.85;;
72720;SDS011;60835;50.974;10.322;2022-10-31T14:51:14;21.75;;;7.90;;
72720;SDS011;60835;50.974;10.322;2022-10-31T14:53:54;23.80;;;7.63;;
72720;SDS011;60835;50.974;10.322;2022-10-31T14:56:34;18.25;;;6.95;;
72720;SDS011;60835;50.974;10.322;2022-10-31T14:59:06;12.40;;;6.18;;
72720;SDS011;60835;50.974;10.322;2022-10-31T15:01:38;22.80;;;7.80;;
72720;SDS011;60835;50.974;10.322;2022-10-31T15:04:19;20.38;;;7.22;;
72720;SDS011;60835;50.974;10.322;2022-10-31T15:10:00;18.80;;;7.25;;
72720;SDS011;60835;50.974;10.322;2022-10-31T15:12:32;15.82;;;6.53;;
72720;SDS011;60835;50.974;10.322;2022-10-31T15:15:19;21.98;;;8.02;;
72720;SDS011;60835;50.974;10.322;2022-10-31T15:17:49;21.63;;;7.28;;
72720;SDS011;60835;50.974;10.322;2022-10-31T15:20:22;15.73;;;7.20;;
72720;SDS011;60835;50.974;10.322;2022-10-31T15:22:50;18.15;;;8.43;;
72720;SDS011;60835;50.974;10.322;2022-10-31T15:25:18;21.38;;;8.05;;
72720;SDS011;60835;50.974;10.322;2022-10-31T15:27:50;14.07;;;7.43;;
72720;SDS011;60835;50.974;10.322;2022-10-31T15:30:18;17.52;;;7.03;;
72720;SDS011;60835;50.974;10.322;2022-10-31T15:32:47;19.90;;;8.05;;
72720;SDS011;60835;50.974;10.322;2022-10-31T15:35:27;18.88;;;8.45;;
72720;SDS011;60835;50.974;10.322;2022-10-31T15:37:56;22.70;;;8.55;;
72720;SDS011;60835;50.974;10.322;2022-10-31T15:40:25;21.17;;;8.30;;
72720;SDS011;60835;50.974;10.322;2022-10-31T15:43:02;29.63;;;9.05;;
72720;SDS011;60835;50.974;10.322;2022-10-31T15:45:31;24.65;;;8.45;;
72720;SDS011;60835;50.974;10.322;2022-10-31T15:48:01;21.23;;;8.48;;
72720;SDS011;60835;50.974;10.322;2022-10-31T15:50:50;21.92;;;8.35;;
72720;SDS011;60835;50.974;10.322;2022-10-31T15:53:27;25.17;;;8.30;;
72720;SDS011;60835;50.974;10.322;2022-10-31T15:56:10;21.60;;;9.32;;
72720;SDS011;60835;50.974;10.322;2022-10-31T15:58:41;18.13;;;9.32;;
72720;SDS011;60835;50.974;10.322;2022-10-31T16:01:32;23.40;;;8.80;;
72720;SDS011;60835;50.974;10.322;2022-10-31T16:06:33;18.23;;;8.20;;
72720;SDS011;60835;50.974;10.322;2022-10-31T16:09:01;21.27;;;8.98;;
72720;SDS011;60835;50.974;10.322;2022-10-31T16:11:33;15.05;;;8.10;;
72720;SDS011;60835;50.974;10.322;2022-10-31T16:14:01;23.55;;;9.10;;
72720;SDS011;60835;50.974;10.322;2022-10-31T16:16:32;27.75;;;10.60;;
72720;SDS011;60835;50.974;10.322;2022-10-31T16:19:02;25.85;;;9.63;;
72720;SDS011;60835;50.974;10.322;2022-10-31T16:21:33;21.73;;;9.40;;
72720;SDS011;60835;50.974;10.322;2022-10-31T16:24:26;26.77;;;10.05;;
72720;SDS011;60835;50.974;10.322;2022-10-31T16:27:01;23.77;;;9.43;;
72720;SDS011;60835;50.974;10.322;2022-10-31T16:31:59;25.00;;;9.30;;
72720;SDS011;60835;50.974;10.322;2022-10-31T16:34:26;19.05;;;8.93;;
72720;SDS011;60835;50.974;10.322;2022-10-31T16:36:53;21.55;;;9.68;;
72720;SDS011;60835;50.974;10.322;2022-10-31T16:39:19;20.48;;;9.23;;
72720;SDS011;60835;50.974;10.322;2022-10-31T16:41:47;21.40;;;8.85;;
72720;SDS011;60835;50.974;10.322;2022-10-31T16:44:23;21.88;;;9.43;;
72720;SDS011;60835;50.974;10.322;2022-10-31T16:49:32;22.05;;;9.75;;
72720;SDS011;60835;50.974;10.322;2022-10-31T16:51:59;21.08;;;9.50;;
72720;SDS011;60835;50.974;10.322;2022-10-31T16:54:25;18.98;;;8.93;;
72720;SDS011;60835;50.974;10.322;2022-10-31T16:56:54;17.70;;;9.48;;
72720;SDS011;60835;50.974;10.322;2022-10-31T16:59:21;27.50;;;11.73;;
72720;SDS011;60835;50.974;10.322;2022-10-31T17:01:48;30.73;;;11.15;;